Time;durP1;ratioP1;P1;durP2;ratioP2;P2;SDS_P1;SDS_P2;PMS_P1;PMS_P2;Temp;Humidity;BMP_temperature;BMP_pressure;BME280_temperature;BME280_humidity;BME280_pressure;Samples;Min_cycle;Max_cycle;Signal;HPM_P1;HPM_P2
2021/03/13 00:01:17;;;;;;;16.27;4.55;;;;;;;;;;4949557;28;20031;-84
2021/03/13 00:03:42;;;;;;;21.60;3.58;;;;;;;;;;4935579;29;20077;-84
2021/03/13 00:06:08;;;;;;;17.20;3.45;;;;;;;;;;4931919;29;20043;-84
2021/03/13 00:08:36;;;;;;;13.07;2.20;;;;;;;;;;4939979;29;20038;-84
2021/03/13 00:11:02;;;;;;;20.75;3.17;;;;;;;;;;4951709;28;20015;-83
2021/03/13 00:13:27;;;;;;;18.33;2.80;;;;;;;;;;4947761;29;20050;-83
2021/03/13 00:15:52;;;;;;;16.27;3.22;;;;;;;;;;4939029;29;20027;-83
2021/03/13 00:18:18;;;;;;;10.03;2.20;;;;;;;;;;4933016;29;20023;-84
2021/03/13 00:20:43;;;;;;;14.68;2.65;;;;;;;;;;4931296;29;20327;-84
2021/03/13 00:23:09;;;;;;;16.20;2.92;;;;;;;;;;4956138;28;20054;-84
2021/03/13 00:25:34;;;;;;;11.35;2.35;;;;;;;;;;4942156;29;20040;-86
2021/03/13 00:28:00;;;;;;;10.02;2.15;;;;;;;;;;4935950;29;20028;-84
2021/03/13 00:30:25;;;;;;;16.98;2.63;;;;;;;;;;4915745;29;20035;-84
2021/03/13 00:32:52;;;;;;;12.35;2.35;;;;;;;;;;4896426;29;20052;-84
2021/03/13 00:35:18;;;;;;;10.43;2.35;;;;;;;;;;4906284;29;20480;-81
2021/03/13 00:37:43;;;;;;;6.90;3.25;;;;;;;;;;4898962;29;20472;-82
2021/03/13 00:40:13;;;;;;;22.63;3.55;;;;;;;;;;4912423;29;20054;-83
2021/03/13 00:42:38;;;;;;;18.58;3.83;;;;;;;;;;4896630;29;20045;-82
2021/03/13 00:45:04;;;;;;;6.40;2.23;;;;;;;;;;4911325;29;20132;-82
2021/03/13 00:47:29;;;;;;;16.63;3.67;;;;;;;;;;4911667;29;20285;-82
2021/03/13 00:49:54;;;;;;;14.45;2.63;;;;;;;;;;4902196;29;20036;-82
2021/03/13 00:52:19;;;;;;;11.43;3.33;;;;;;;;;;4911514;29;20024;-82
2021/03/13 00:54:44;;;;;;;13.13;2.90;;;;;;;;;;4909252;29;20267;-81
2021/03/13 00:57:10;;;;;;;10.95;2.45;;;;;;;;;;4909758;29;20283;-81
2021/03/13 00:59:35;;;;;;;8.50;3.33;;;;;;;;;;4909458;29;20024;-81
2021/03/13 01:02:00;;;;;;;16.27;2.90;;;;;;;;;;4927165;29;20604;-81
2021/03/13 01:04:25;;;;;;;12.67;2.93;;;;;;;;;;4934974;29;20273;-81
2021/03/13 01:06:51;;;;;;;10.32;2.75;;;;;;;;;;4935302;29;20417;-81
2021/03/13 01:09:16;;;;;;;4.87;1.83;;;;;;;;;;4929486;29;20031;-81
2021/03/13 01:11:41;;;;;;;9.02;1.95;;;;;;;;;;4933197;29;20317;-81
2021/03/13 01:14:06;;;;;;;12.13;2.80;;;;;;;;;;4957457;28;20042;-81
2021/03/13 01:16:32;;;;;;;6.50;1.87;;;;;;;;;;4954746;29;20055;-82
2021/03/13 01:18:57;;;;;;;12.87;2.93;;;;;;;;;;4956839;28;20265;-83
2021/03/13 01:21:22;;;;;;;15.47;4.10;;;;;;;;;;4935784;29;20309;-83
2021/03/13 01:23:47;;;;;;;11.38;4.75;;;;;;;;;;4942091;28;20052;-83
2021/03/13 01:26:12;;;;;;;10.93;3.10;;;;;;;;;;4948590;29;20118;-82
2021/03/13 01:28:37;;;;;;;11.97;3.17;;;;;;;;;;4957970;28;20026;-83
2021/03/13 01:31:13;;;;;;;11.30;3.57;;;;;;;;;;4940245;29;20281;-82
2021/03/13 01:33:39;;;;;;;9.40;3.20;;;;;;;;;;4954880;29;20376;-84
2021/03/13 01:36:04;;;;;;;10.57;3.15;;;;;;;;;;4941860;29;20039;-84
2021/03/13 01:38:30;;;;;;;14.18;3.92;;;;;;;;;;4939057;29;20034;-83
2021/03/13 01:40:55;;;;;;;12.48;3.28;;;;;;;;;;4935304;29;20290;-82
2021/03/13 01:43:20;;;;;;;8.95;2.92;;;;;;;;;;4957381;28;20264;-83
2021/03/13 01:45:45;;;;;;;15.43;3.60;;;;;;;;;;4955247;28;20067;-82
2021/03/13 01:48:11;;;;;;;17.55;4.18;;;;;;;;;;4952369;29;20035;-81
2021/03/13 01:50:36;;;;;;;9.68;3.80;;;;;;;;;;4948793;29;20034;-81
2021/03/13 01:53:01;;;;;;;10.95;3.85;;;;;;;;;;4940950;29;20039;-81
2021/03/13 01:55:27;;;;;;;10.80;3.23;;;;;;;;;;4932791;29;20024;-82
2021/03/13 01:57:52;;;;;;;9.57;2.80;;;;;;;;;;4949104;28;20023;-82
2021/03/13 02:00:18;;;;;;;14.57;3.88;;;;;;;;;;4937761;29;20264;-81
2021/03/13 02:02:44;;;;;;;9.38;3.97;;;;;;;;;;4939110;29;20450;-81
2021/03/13 02:05:12;;;;;;;13.05;3.50;;;;;;;;;;4933197;29;20030;-81
2021/03/13 02:07:45;;;;;;;8.20;3.35;;;;;;;;;;4951754;29;20030;-81
2021/03/13 02:10:25;;;;;;;9.75;3.20;;;;;;;;;;4925800;29;20487;-81
2021/03/13 02:12:50;;;;;;;6.07;2.20;;;;;;;;;;4928620;29;20122;-81
2021/03/13 02:15:30;;;;;;;10.05;3.83;;;;;;;;;;4938950;29;20302;-81
2021/03/13 02:18:15;;;;;;;6.57;2.47;;;;;;;;;;4927194;28;20032;-81
2021/03/13 02:20:55;;;;;;;10.32;3.63;;;;;;;;;;4951441;28;20023;-81
2021/03/13 02:23:21;;;;;;;17.02;3.50;;;;;;;;;;4957103;28;20033;-82
2021/03/13 02:26:05;;;;;;;11.20;3.00;;;;;;;;;;4940954;29;20027;-82
2021/03/13 02:28:35;;;;;;;10.10;2.42;;;;;;;;;;4944513;28;20455;-82
2021/03/13 02:31:01;;;;;;;9.52;3.28;;;;;;;;;;4937975;29;20035;-82
2021/03/13 02:33:31;;;;;;;13.85;4.47;;;;;;;;;;4927667;29;20555;-82
2021/03/13 02:35:58;;;;;;;10.80;3.70;;;;;;;;;;4931092;29;20035;-82
2021/03/13 02:38:29;;;;;;;11.82;4.13;;;;;;;;;;4944859;29;20535;-82
2021/03/13 02:40:56;;;;;;;10.23;3.95;;;;;;;;;;4941102;29;20467;-81
2021/03/13 02:43:21;;;;;;;13.25;3.60;;;;;;;;;;4943773;28;20102;-81
2021/03/13 02:45:48;;;;;;;9.68;3.40;;;;;;;;;;4928030;29;20119;-81
2021/03/13 02:48:16;;;;;;;8.38;3.80;;;;;;;;;;4958633;28;20034;-82
2021/03/13 02:50:41;;;;;;;7.75;3.30;;;;;;;;;;4930286;29;20019;-82
2021/03/13 02:53:06;;;;;;;17.58;4.90;;;;;;;;;;4943756;29;20604;-81
2021/03/13 02:55:32;;;;;;;12.75;3.10;;;;;;;;;;4938819;29;20019;-82
2021/03/13 02:57:59;;;;;;;15.35;4.03;;;;;;;;;;4935626;29;20030;-81
2021/03/13 03:00:25;;;;;;;9.05;2.72;;;;;;;;;;4936048;29;20493;-80
2021/03/13 03:02:54;;;;;;;13.30;3.42;;;;;;;;;;4927695;29;20118;-80
2021/03/13 03:05:21;;;;;;;11.45;2.60;;;;;;;;;;4950797;28;20035;-82
2021/03/13 03:07:47;;;;;;;10.80;2.60;;;;;;;;;;4927549;29;20039;-83
2021/03/13 03:10:13;;;;;;;9.50;2.78;;;;;;;;;;4954767;28;20027;-82
2021/03/13 03:12:41;;;;;;;10.48;3.05;;;;;;;;;;4949245;28;20506;-82
2021/03/13 03:15:07;;;;;;;7.38;2.13;;;;;;;;;;4930661;29;20023;-83
2021/03/13 03:17:32;;;;;;;8.60;3.90;;;;;;;;;;4922615;28;20101;-82
2021/03/13 03:19:58;;;;;;;12.05;3.38;;;;;;;;;;4934260;29;20063;-80
2021/03/13 03:22:24;;;;;;;6.85;2.38;;;;;;;;;;4930085;29;20035;-80
2021/03/13 03:24:49;;;;;;;18.40;3.33;;;;;;;;;;4942090;29;20118;-80
2021/03/13 03:27:14;;;;;;;10.88;2.15;;;;;;;;;;4939803;28;20019;-80
2021/03/13 03:29:40;;;;;;;6.63;2.35;;;;;;;;;;4933546;29;20031;-80
2021/03/13 03:32:05;;;;;;;7.57;2.53;;;;;;;;;;4930113;29;20015;-80
2021/03/13 03:34:30;;;;;;;11.70;2.73;;;;;;;;;;4947453;28;20491;-81
2021/03/13 03:36:55;;;;;;;8.73;2.88;;;;;;;;;;4941144;29;20414;-81
2021/03/13 03:39:21;;;;;;;10.68;2.45;;;;;;;;;;4947110;28;20059;-81
2021/03/13 03:41:48;;;;;;;11.25;2.13;;;;;;;;;;4923520;29;20023;-81
2021/03/13 03:44:15;;;;;;;12.30;3.70;;;;;;;;;;4944431;29;20035;-81
2021/03/13 03:46:40;;;;;;;10.48;2.95;;;;;;;;;;4947843;29;20223;-81
2021/03/13 03:49:06;;;;;;;10.93;2.60;;;;;;;;;;4930109;29;20190;-81
2021/03/13 03:51:32;;;;;;;7.93;2.00;;;;;;;;;;4930342;29;20023;-80
2021/03/13 03:53:57;;;;;;;16.48;3.17;;;;;;;;;;4935758;28;20057;-82
2021/03/13 03:56:23;;;;;;;8.82;2.33;;;;;;;;;;4942603;29;20020;-81
2021/03/13 03:58:49;;;;;;;12.85;3.92;;;;;;;;;;4949690;29;20027;-82
2021/03/13 04:01:15;;;;;;;6.20;1.83;;;;;;;;;;4950764;28;20505;-82
2021/03/13 04:03:50;;;;;;;11.20;2.33;;;;;;;;;;4941230;29;20074;-81
2021/03/13 04:06:16;;;;;;;5.70;1.48;;;;;;;;;;4940419;29;20508;-80
2021/03/13 04:08:42;;;;;;;12.82;2.20;;;;;;;;;;4944893;29;20107;-78
2021/03/13 04:11:10;;;;;;;11.35;2.33;;;;;;;;;;4948399;28;20155;-79
2021/03/13 04:13:36;;;;;;;5.68;1.80;;;;;;;;;;4947165;29;20023;-80
2021/03/13 04:16:01;;;;;;;7.13;1.50;;;;;;;;;;4957006;28;20073;-80
2021/03/13 04:18:27;;;;;;;9.18;2.38;;;;;;;;;;4949206;28;20472;-80
2021/03/13 04:20:52;;;;;;;15.48;1.98;;;;;;;;;;4945639;29;20071;-82
2021/03/13 04:23:19;;;;;;;9.75;1.50;;;;;;;;;;4937313;29;20030;-82
2021/03/13 04:25:46;;;;;;;6.03;2.33;;;;;;;;;;4942233;28;20054;-82
2021/03/13 04:28:11;;;;;;;6.75;1.75;;;;;;;;;;4950858;28;20023;-81
2021/03/13 04:30:36;;;;;;;6.40;1.87;;;;;;;;;;4957687;28;20031;-80
2021/03/13 04:33:01;;;;;;;11.00;2.23;;;;;;;;;;4947338;29;20038;-81
2021/03/13 04:35:27;;;;;;;8.50;1.70;;;;;;;;;;4943028;29;20443;-81
2021/03/13 04:37:53;;;;;;;5.82;1.52;;;;;;;;;;4949645;28;20016;-80
2021/03/13 04:40:20;;;;;;;9.63;2.30;;;;;;;;;;4958697;28;20406;-81
2021/03/13 04:42:45;;;;;;;9.63;1.83;;;;;;;;;;4941299;29;20027;-81
2021/03/13 04:45:12;;;;;;;8.38;1.65;;;;;;;;;;4959458;28;20034;-81
2021/03/13 04:47:40;;;;;;;8.20;2.20;;;;;;;;;;4933624;29;20027;-82
2021/03/13 04:50:05;;;;;;;5.70;1.80;;;;;;;;;;4955997;29;20042;-83
2021/03/13 04:52:30;;;;;;;11.27;2.00;;;;;;;;;;4950762;29;20020;-81
2021/03/13 04:54:56;;;;;;;5.15;1.45;;;;;;;;;;4929898;29;20051;-82
2021/03/13 04:57:21;;;;;;;9.35;2.00;;;;;;;;;;4943524;29;20030;-81
2021/03/13 04:59:46;;;;;;;6.53;1.53;;;;;;;;;;4932235;29;20027;-80
2021/03/13 05:02:11;;;;;;;8.67;1.90;;;;;;;;;;4939638;29;20272;-79
2021/03/13 05:04:36;;;;;;;8.60;1.80;;;;;;;;;;4958513;28;20503;-81
2021/03/13 05:07:01;;;;;;;6.07;2.50;;;;;;;;;;4945933;29;20071;-80
2021/03/13 05:09:27;;;;;;;3.00;1.23;;;;;;;;;;4943586;29;20032;-83
2021/03/13 05:11:52;;;;;;;7.95;1.27;;;;;;;;;;4950234;29;20300;-82
2021/03/13 05:14:17;;;;;;;4.17;1.37;;;;;;;;;;4949349;28;20075;-83
2021/03/13 05:16:42;;;;;;;5.93;0.90;;;;;;;;;;4937914;29;20055;-82
2021/03/13 05:19:07;;;;;;;5.60;1.27;;;;;;;;;;4934612;29;20301;-80
2021/03/13 05:21:33;;;;;;;12.97;2.00;;;;;;;;;;4937966;29;20274;-80
2021/03/13 05:23:58;;;;;;;7.95;1.20;;;;;;;;;;4945070;29;20340;-80
2021/03/13 05:26:23;;;;;;;9.63;1.43;;;;;;;;;;4943254;29;20037;-80
2021/03/13 05:28:49;;;;;;;4.57;1.17;;;;;;;;;;4943582;29;20331;-79
2021/03/13 05:31:14;;;;;;;7.13;0.70;;;;;;;;;;4947075;29;20875;-79
2021/03/13 05:33:39;;;;;;;1.53;0.70;;;;;;;;;;4948417;28;20019;-80
2021/03/13 05:36:04;;;;;;;2.35;0.65;;;;;;;;;;4950886;28;20022;-81
2021/03/13 05:38:29;;;;;;;7.53;0.93;;;;;;;;;;4950024;28;20110;-80
2021/03/13 05:40:55;;;;;;;3.38;0.50;;;;;;;;;;4948003;29;20035;-80
2021/03/13 05:43:21;;;;;;;3.95;0.88;;;;;;;;;;4943094;29;20038;-80
2021/03/13 05:45:46;;;;;;;1.38;0.60;;;;;;;;;;4947050;28;20370;-80
2021/03/13 05:48:11;;;;;;;6.90;1.65;;;;;;;;;;4943541;29;20529;-79
2021/03/13 05:50:37;;;;;;;6.20;0.67;;;;;;;;;;4938921;29;20483;-79
2021/03/13 05:53:03;;;;;;;5.65;0.73;;;;;;;;;;4938481;29;20306;-79
2021/03/13 05:55:28;;;;;;;3.47;0.90;;;;;;;;;;4941049;29;20046;-80
2021/03/13 05:57:54;;;;;;;2.37;0.90;;;;;;;;;;4940669;28;20024;-79
2021/03/13 06:00:19;;;;;;;5.82;1.30;;;;;;;;;;4947581;28;20270;-80
2021/03/13 06:02:45;;;;;;;5.47;1.48;;;;;;;;;;4957406;28;20545;-80
2021/03/13 06:05:10;;;;;;;12.45;2.50;;;;;;;;;;4945692;28;20771;-80
2021/03/13 06:07:35;;;;;;;5.80;1.20;;;;;;;;;;4935236;29;20095;-81
2021/03/13 06:10:01;;;;;;;5.55;0.85;;;;;;;;;;4956843;28;20020;-82
2021/03/13 06:12:26;;;;;;;4.53;0.93;;;;;;;;;;4945080;28;20528;-84
2021/03/13 06:14:52;;;;;;;7.28;1.25;;;;;;;;;;4931160;29;20063;-81
2021/03/13 06:17:18;;;;;;;8.95;2.00;;;;;;;;;;4958961;28;20023;-81
2021/03/13 06:19:57;;;;;;;5.07;1.40;;;;;;;;;;4949115;29;20243;-85
2021/03/13 06:22:31;;;;;;;6.72;1.17;;;;;;;;;;4945530;29;20468;-82
2021/03/13 06:25:15;;;;;;;11.30;1.80;;;;;;;;;;4940911;29;20038;-80
2021/03/13 06:27:41;;;;;;;8.15;1.50;;;;;;;;;;4945554;28;20030;-80
2021/03/13 06:30:07;;;;;;;9.25;1.95;;;;;;;;;;4946030;28;20027;-81
2021/03/13 06:32:36;;;;;;;13.80;1.63;;;;;;;;;;4946625;28;20028;-80
2021/03/13 06:35:19;;;;;;;7.20;1.55;;;;;;;;;;4940372;28;20396;-81
2021/03/13 06:37:45;;;;;;;9.13;1.48;;;;;;;;;;4924437;29;20027;-80
2021/03/13 06:40:10;;;;;;;9.00;1.40;;;;;;;;;;4925750;29;20223;-80
2021/03/13 06:42:35;;;;;;;10.43;2.03;;;;;;;;;;4942923;29;20479;-81
2021/03/13 06:45:03;;;;;;;10.40;1.85;;;;;;;;;;4928270;28;20026;-81
2021/03/13 06:47:29;;;;;;;8.63;1.48;;;;;;;;;;4946000;28;20053;-82
2021/03/13 06:50:13;;;;;;;9.63;1.20;;;;;;;;;;4948207;28;20042;-83
2021/03/13 06:52:38;;;;;;;7.13;1.65;;;;;;;;;;4944513;29;20024;-82
2021/03/13 06:55:04;;;;;;;9.60;1.60;;;;;;;;;;4953751;28;20577;-82
2021/03/13 06:57:29;;;;;;;13.82;1.88;;;;;;;;;;4950119;28;20032;-82
2021/03/13 06:59:59;;;;;;;11.13;2.03;;;;;;;;;;4934717;28;20375;-82
2021/03/13 07:02:24;;;;;;;9.43;1.77;;;;;;;;;;4949874;29;20126;-84
2021/03/13 07:04:49;;;;;;;13.60;2.35;;;;;;;;;;4935715;28;20070;-83
2021/03/13 07:07:30;;;;;;;16.05;2.30;;;;;;;;;;4931031;29;20054;-82
2021/03/13 07:09:56;;;;;;;21.33;2.58;;;;;;;;;;4958160;28;20098;-81
2021/03/13 07:12:21;;;;;;;12.95;2.30;;;;;;;;;;4936713;29;20039;-82
2021/03/13 07:14:47;;;;;;;12.90;2.72;;;;;;;;;;4939928;28;20257;-83
2021/03/13 07:17:14;;;;;;;12.70;3.15;;;;;;;;;;4942046;29;20039;-81
2021/03/13 07:19:40;;;;;;;14.40;2.88;;;;;;;;;;4942344;28;20034;-80
2021/03/13 07:22:05;;;;;;;20.33;3.95;;;;;;;;;;4930931;29;20015;-79
2021/03/13 07:24:30;;;;;;;16.25;2.40;;;;;;;;;;4939755;28;20030;-79
2021/03/13 07:26:57;;;;;;;28.00;4.13;;;;;;;;;;4958406;28;20166;-80
2021/03/13 07:29:23;;;;;;;22.02;2.92;;;;;;;;;;4952374;28;20022;-80
2021/03/13 07:31:55;;;;;;;25.42;3.85;;;;;;;;;;4952677;28;20034;-81
2021/03/13 07:34:20;;;;;;;25.80;5.13;;;;;;;;;;4953048;29;20145;-79
2021/03/13 07:36:52;;;;;;;10.90;1.90;;;;;;;;;;4955443;29;20135;-80
2021/03/13 07:39:22;;;;;;;12.00;2.13;;;;;;;;;;4927426;28;20483;-80
2021/03/13 07:41:57;;;;;;;16.75;2.55;;;;;;;;;;4959920;28;20062;-80
2021/03/13 07:44:23;;;;;;;14.13;3.53;;;;;;;;;;4959297;28;20034;-80
2021/03/13 07:46:49;;;;;;;11.55;1.90;;;;;;;;;;4954859;28;20035;-79
2021/03/13 07:49:14;;;;;;;13.50;2.25;;;;;;;;;;4951729;28;20237;-80
2021/03/13 07:51:40;;;;;;;10.45;2.67;;;;;;;;;;4933303;29;20028;-83
2021/03/13 07:54:07;;;;;;;21.98;2.63;;;;;;;;;;4954849;28;20046;-82
2021/03/13 07:56:33;;;;;;;17.77;3.72;;;;;;;;;;4945109;29;20016;-82
2021/03/13 07:58:58;;;;;;;11.77;2.38;;;;;;;;;;4939856;29;20015;-83
2021/03/13 08:01:42;;;;;;;18.88;3.30;;;;;;;;;;4950530;29;20480;-82
2021/03/13 08:04:08;;;;;;;15.07;3.15;;;;;;;;;;4949652;28;20030;-84
2021/03/13 08:06:53;;;;;;;13.73;3.67;;;;;;;;;;4946560;29;20397;-84
2021/03/13 08:09:24;;;;;;;21.50;2.60;;;;;;;;;;4952837;29;20019;-83
2021/03/13 08:11:50;;;;;;;27.73;4.15;;;;;;;;;;4924546;29;20126;-83
2021/03/13 08:14:29;;;;;;;24.60;3.47;;;;;;;;;;4950553;28;20129;-84
2021/03/13 08:17:04;;;;;;;18.73;3.75;;;;;;;;;;4956223;28;20101;-84
2021/03/13 08:19:33;;;;;;;34.00;5.03;;;;;;;;;;4947054;29;20031;-84
2021/03/13 08:22:17;;;;;;;24.00;3.72;;;;;;;;;;4945655;28;20024;-84
2021/03/13 08:24:42;;;;;;;20.63;3.90;;;;;;;;;;4949961;29;20019;-84
2021/03/13 08:27:09;;;;;;;27.00;4.72;;;;;;;;;;4937108;28;20030;-84
2021/03/13 08:29:51;;;;;;;24.48;4.47;;;;;;;;;;4946560;28;20310;-83
2021/03/13 08:32:17;;;;;;;29.83;3.83;;;;;;;;;;4953451;28;20471;-83
2021/03/13 08:34:43;;;;;;;21.60;4.55;;;;;;;;;;4932524;29;20027;-83
2021/03/13 08:37:22;;;;;;;15.50;3.25;;;;;;;;;;4939003;28;20043;-85
2021/03/13 08:39:48;;;;;;;27.85;5.63;;;;;;;;;;4955039;28;20632;-83
2021/03/13 08:42:29;;;;;;;31.60;6.25;;;;;;;;;;4942652;28;20028;-83
2021/03/13 08:45:14;;;;;;;28.65;6.03;;;;;;;;;;4937258;29;20041;-83
2021/03/13 08:47:43;;;;;;;23.40;3.97;;;;;;;;;;4956205;28;20023;-83
2021/03/13 08:50:08;;;;;;;32.53;5.65;;;;;;;;;;4935884;29;20110;-82
2021/03/13 08:52:34;;;;;;;29.70;6.15;;;;;;;;;;4950846;29;20090;-82
2021/03/13 08:54:59;;;;;;;27.23;6.82;;;;;;;;;;4949678;28;20048;-83
2021/03/13 08:57:25;;;;;;;30.50;5.05;;;;;;;;;;4952032;28;20023;-83
2021/03/13 08:59:53;;;;;;;44.25;6.80;;;;;;;;;;4932961;28;20433;-83
2021/03/13 09:02:19;;;;;;;34.70;5.82;;;;;;;;;;4941684;28;20484;-83
2021/03/13 09:04:46;;;;;;;30.73;4.93;;;;;;;;;;4957801;28;20050;-85
2021/03/13 09:07:11;;;;;;;48.67;9.05;;;;;;;;;;4937745;28;20109;-84
2021/03/13 09:09:40;;;;;;;39.58;8.02;;;;;;;;;;4932672;29;20451;-83
2021/03/13 09:12:08;;;;;;;35.85;6.15;;;;;;;;;;4952208;28;20030;-83
2021/03/13 09:14:34;;;;;;;39.92;7.38;;;;;;;;;;4928867;29;20252;-83
2021/03/13 09:17:09;;;;;;;31.95;6.35;;;;;;;;;;4958509;28;20019;-83
2021/03/13 09:19:35;;;;;;;31.73;6.50;;;;;;;;;;4949268;28;20406;-83
2021/03/13 09:22:05;;;;;;;31.52;5.85;;;;;;;;;;4930086;28;20051;-82
2021/03/13 09:24:30;;;;;;;28.52;6.35;;;;;;;;;;4937748;28;20061;-82
2021/03/13 09:35:33;;;;;;;34.90;7.10;;;;;;;;;;4959648;28;20046;-84
2021/03/13 09:38:07;;;;;;;39.75;6.00;;;;;;;;;;4966241;28;20434;-81
2021/03/13 09:40:32;;;;;;;28.25;6.15;;;;;;;;;;4951453;28;20029;-83
2021/03/13 09:42:57;;;;;;;28.20;5.18;;;;;;;;;;4976021;28;20031;-82
2021/03/13 09:45:24;;;;;;;32.92;5.18;;;;;;;;;;4944910;28;20034;-82
2021/03/13 09:47:54;;;;;;;33.92;4.82;;;;;;;;;;4963075;28;20035;-82
2021/03/13 09:50:24;;;;;;;39.67;7.90;;;;;;;;;;4957254;28;20031;-82
2021/03/13 09:52:50;;;;;;;29.73;4.35;;;;;;;;;;4954491;28;20266;-80
2021/03/13 09:55:16;;;;;;;44.70;9.50;;;;;;;;;;4974580;28;20342;-83
2021/03/13 09:57:42;;;;;;;34.72;6.10;;;;;;;;;;4950047;28;20112;-82
2021/03/13 10:00:09;;;;;;;35.30;5.05;;;;;;;;;;4949121;28;20058;-83
2021/03/13 10:02:35;;;;;;;27.75;5.82;;;;;;;;;;4975162;28;20027;-81
2021/03/13 10:05:00;;;;;;;32.53;5.75;;;;;;;;;;4968003;28;20094;-81
2021/03/13 10:07:25;;;;;;;25.70;7.25;;;;;;;;;;4956966;28;20463;-81
2021/03/13 10:09:55;;;;;;;31.38;6.65;;;;;;;;;;4963243;28;20477;-81
2021/03/13 10:12:31;;;;;;;37.40;5.47;;;;;;;;;;4949169;28;20034;-81
2021/03/13 10:14:56;;;;;;;;;;;;;;;;;;4967133;28;20020;-82
2021/03/13 10:17:21;;;;;;;44.83;7.03;;;;;;;;;;4955930;28;19957;-80
2021/03/13 10:19:49;;;;;;;35.35;5.22;;;;;;;;;;4950091;28;20031;-81
2021/03/13 10:22:24;;;;;;;42.10;5.47;;;;;;;;;;4966949;28;20030;-80
2021/03/13 10:24:51;;;;;;;28.53;4.20;;;;;;;;;;4969896;28;20636;-83
2021/03/13 10:27:27;;;;;;;27.85;3.70;;;;;;;;;;4954634;28;20030;-84
2021/03/13 10:29:53;;;;;;;17.52;4.90;;;;;;;;;;4965706;28;20091;-82
2021/03/13 10:32:25;;;;;;;32.70;5.20;;;;;;;;;;4962960;28;20031;-80
2021/03/13 10:35:10;;;;;;;15.15;4.75;;;;;;;;;;4949668;28;20147;-82
2021/03/13 10:37:37;;;;;;;16.20;4.80;;;;;;;;;;4969304;28;20030;-83
2021/03/13 10:40:03;;;;;;;21.98;5.20;;;;;;;;;;4973568;28;20921;-82
2021/03/13 10:42:34;;;;;;;23.02;4.25;;;;;;;;;;4951623;28;20038;-81
2021/03/13 10:45:09;;;;;;;32.85;5.40;;;;;;;;;;4955269;28;20423;-83
2021/03/13 10:47:36;;;;;;;30.58;7.25;;;;;;;;;;4952016;28;20482;-81
2021/03/13 10:50:01;;;;;;;23.05;3.20;;;;;;;;;;4965986;28;20038;-82
2021/03/13 10:52:27;;;;;;;22.75;4.40;;;;;;;;;;4945428;28;20044;-81
2021/03/13 10:54:52;;;;;;;20.25;4.07;;;;;;;;;;4963870;28;20023;-81
2021/03/13 10:57:18;;;;;;;25.65;5.03;;;;;;;;;;4947892;28;20508;-81
2021/03/13 10:59:43;;;;;;;27.63;5.47;;;;;;;;;;4949892;28;20038;-82
2021/03/13 11:02:09;;;;;;;28.58;5.03;;;;;;;;;;4965135;28;20026;-84
2021/03/13 11:04:34;;;;;;;23.58;4.10;;;;;;;;;;4947227;28;20784;-80
2021/03/13 11:06:59;;;;;;;19.30;3.60;;;;;;;;;;4944685;28;20510;-82
2021/03/13 11:09:26;;;;;;;21.20;3.58;;;;;;;;;;4969399;28;20106;-83
2021/03/13 11:11:52;;;;;;;41.35;5.57;;;;;;;;;;4967094;28;20034;-84
2021/03/13 11:14:17;;;;;;;26.15;5.47;;;;;;;;;;4975142;28;20547;-82
2021/03/13 11:16:43;;;;;;;31.58;4.30;;;;;;;;;;4949683;28;20026;-83
2021/03/13 11:19:08;;;;;;;28.00;5.53;;;;;;;;;;4945311;28;20037;-82
2021/03/13 11:21:35;;;;;;;40.58;6.88;;;;;;;;;;4965329;28;20023;-82
2021/03/13 11:24:00;;;;;;;28.65;5.68;;;;;;;;;;4962074;28;20481;-82
2021/03/13 11:26:26;;;;;;;21.17;2.80;;;;;;;;;;4950929;28;20019;-82
2021/03/13 11:28:51;;;;;;;26.27;4.25;;;;;;;;;;4967966;28;20030;-84
2021/03/13 11:31:17;;;;;;;17.77;4.43;;;;;;;;;;4966416;28;20231;-81
2021/03/13 11:33:42;;;;;;;14.45;3.78;;;;;;;;;;4946702;28;20035;-85
2021/03/13 11:36:08;;;;;;;20.88;3.33;;;;;;;;;;4947060;28;20154;-84
2021/03/13 11:38:34;;;;;;;19.45;2.58;;;;;;;;;;4950218;28;20026;-85
2021/03/13 11:41:02;;;;;;;15.70;3.95;;;;;;;;;;4945624;28;20448;-82
2021/03/13 11:43:27;;;;;;;10.93;2.20;;;;;;;;;;4974344;28;20390;-80
2021/03/13 11:45:52;;;;;;;13.75;2.65;;;;;;;;;;4946687;28;20034;-82
2021/03/13 11:48:18;;;;;;;14.63;2.92;;;;;;;;;;4947218;28;20508;-82
2021/03/13 11:50:43;;;;;;;14.23;3.55;;;;;;;;;;4953529;28;20106;-81
2021/03/13 11:53:09;;;;;;;17.10;2.95;;;;;;;;;;4962370;28;20030;-82
2021/03/13 11:55:34;;;;;;;23.77;3.10;;;;;;;;;;4964881;28;20034;-82
2021/03/13 11:57:59;;;;;;;14.30;2.22;;;;;;;;;;4964850;28;20445;-82
2021/03/13 12:00:25;;;;;;;15.88;3.50;;;;;;;;;;4944212;28;20027;-83
2021/03/13 12:02:50;;;;;;;12.32;3.22;;;;;;;;;;4964359;28;20105;-84
2021/03/13 12:05:15;;;;;;;10.13;2.38;;;;;;;;;;4951658;28;20029;-83
2021/03/13 12:07:40;;;;;;;13.48;2.53;;;;;;;;;;4965437;28;20107;-85
2021/03/13 12:10:07;;;;;;;12.45;2.10;;;;;;;;;;4950596;28;20027;-82
2021/03/13 12:12:32;;;;;;;7.32;1.92;;;;;;;;;;4948305;28;20029;-83
2021/03/13 12:14:57;;;;;;;12.77;1.80;;;;;;;;;;4964868;28;20019;-83
2021/03/13 12:17:23;;;;;;;28.63;2.45;;;;;;;;;;4953874;28;20019;-86
2021/03/13 12:19:48;;;;;;;17.05;2.55;;;;;;;;;;4968374;28;20027;-81
2021/03/13 12:22:14;;;;;;;15.10;2.42;;;;;;;;;;4955628;28;20037;-82
2021/03/13 12:24:39;;;;;;;10.18;3.33;;;;;;;;;;4963008;28;20030;-81
2021/03/13 12:27:05;;;;;;;13.65;2.15;;;;;;;;;;4982566;28;20026;-83
2021/03/13 12:29:30;;;;;;;16.88;2.05;;;;;;;;;;4958134;28;20023;-84
2021/03/13 12:31:56;;;;;;;14.70;2.50;;;;;;;;;;4950598;28;20033;-80
2021/03/13 12:34:21;;;;;;;9.65;2.72;;;;;;;;;;4969424;28;20052;-82
2021/03/13 12:36:47;;;;;;;17.02;4.57;;;;;;;;;;4968716;28;20023;-84
2021/03/13 12:39:13;;;;;;;14.18;2.03;;;;;;;;;;4955822;28;20026;-85
2021/03/13 12:41:40;;;;;;;18.83;3.22;;;;;;;;;;4980476;28;20034;-83
2021/03/13 12:44:05;;;;;;;17.40;2.85;;;;;;;;;;4982017;28;20023;-84
2021/03/13 12:46:31;;;;;;;10.52;1.90;;;;;;;;;;4942541;28;20031;-81
2021/03/13 12:48:56;;;;;;;12.65;1.83;;;;;;;;;;4967833;28;20081;-83
2021/03/13 12:51:37;;;;;;;9.18;1.95;;;;;;;;;;4972564;28;20031;-82
2021/03/13 12:54:02;;;;;;;6.68;1.73;;;;;;;;;;4958133;28;20027;-83
2021/03/13 12:56:28;;;;;;;13.38;2.35;;;;;;;;;;4972581;28;20070;-84
2021/03/13 12:58:53;;;;;;;3.45;1.30;;;;;;;;;;4942181;28;20031;-81
2021/03/13 13:01:18;;;;;;;9.33;1.43;;;;;;;;;;4967045;28;20027;-82
2021/03/13 13:03:43;;;;;;;10.10;1.93;;;;;;;;;;4976626;28;20022;-82
2021/03/13 13:06:08;;;;;;;12.27;2.03;;;;;;;;;;4957523;28;20560;-81
2021/03/13 13:08:34;;;;;;;13.77;1.93;;;;;;;;;;4970007;28;20110;-82
2021/03/13 13:10:59;;;;;;;16.27;3.00;;;;;;;;;;4971403;28;20268;-81
2021/03/13 13:13:27;;;;;;;14.50;2.92;;;;;;;;;;4952771;28;20049;-81
2021/03/13 13:15:56;;;;;;;18.67;2.53;;;;;;;;;;4948008;28;20027;-82
2021/03/13 13:18:23;;;;;;;13.25;2.33;;;;;;;;;;4964053;28;20023;-81
2021/03/13 13:20:48;;;;;;;18.05;3.30;;;;;;;;;;4964714;28;20034;-81
2021/03/13 13:23:13;;;;;;;8.18;1.95;;;;;;;;;;4970928;28;20023;-82
2021/03/13 13:25:40;;;;;;;13.15;2.28;;;;;;;;;;4965268;28;20041;-81
2021/03/13 13:28:06;;;;;;;13.52;2.63;;;;;;;;;;4953960;28;20046;-81
2021/03/13 13:30:31;;;;;;;18.33;2.70;;;;;;;;;;4948557;28;20070;-81
2021/03/13 13:32:57;;;;;;;14.70;2.23;;;;;;;;;;4950932;28;20026;-82
2021/03/13 13:35:22;;;;;;;11.48;2.15;;;;;;;;;;4946673;28;20038;-82
2021/03/13 13:37:50;;;;;;;7.93;1.63;;;;;;;;;;4951684;28;20127;-83
2021/03/13 13:40:15;;;;;;;8.60;1.48;;;;;;;;;;4979941;28;20097;-83
2021/03/13 13:42:40;;;;;;;12.77;2.13;;;;;;;;;;4973984;28;20023;-83
2021/03/13 13:45:07;;;;;;;8.02;1.95;;;;;;;;;;4956760;28;20277;-83
2021/03/13 13:47:48;;;;;;;13.13;2.17;;;;;;;;;;4962717;28;20463;-82
2021/03/13 13:50:14;;;;;;;17.02;2.50;;;;;;;;;;4949461;28;20065;-82
2021/03/13 13:52:41;;;;;;;11.38;2.10;;;;;;;;;;4969228;28;20042;-80
2021/03/13 13:55:07;;;;;;;10.65;2.13;;;;;;;;;;4966193;28;20819;-82
2021/03/13 13:57:47;;;;;;;16.45;2.28;;;;;;;;;;4954621;28;20023;-85
2021/03/13 14:00:14;;;;;;;17.45;2.72;;;;;;;;;;4978891;28;20025;-81
2021/03/13 14:02:39;;;;;;;10.48;2.03;;;;;;;;;;4914336;29;20136;-82
2021/03/13 14:05:06;;;;;;;15.90;3.53;;;;;;;;;;4911831;29;20114;-83
2021/03/13 14:07:31;;;;;;;6.65;2.60;;;;;;;;;;4923723;29;20466;-81
2021/03/13 14:09:56;;;;;;;12.57;2.40;;;;;;;;;;4925788;29;20312;-83
2021/03/13 14:12:21;;;;;;;5.70;1.80;;;;;;;;;;4914084;29;20311;-81
2021/03/13 14:14:47;;;;;;;8.70;1.90;;;;;;;;;;4900902;29;20447;-81
2021/03/13 14:17:12;;;;;;;16.33;2.33;;;;;;;;;;4916622;29;20044;-81
2021/03/13 14:19:37;;;;;;;8.07;3.10;;;;;;;;;;4914463;29;20036;-82
2021/03/13 14:22:02;;;;;;;10.77;1.90;;;;;;;;;;4914797;29;20051;-82
2021/03/13 14:24:27;;;;;;;13.03;2.07;;;;;;;;;;4907002;29;20040;-85
2021/03/13 14:26:53;;;;;;;14.47;2.20;;;;;;;;;;4894256;29;20291;-82
2021/03/13 14:29:21;;;;;;;8.53;1.73;;;;;;;;;;4905188;29;20046;-80
2021/03/13 14:31:46;;;;;;;12.98;1.88;;;;;;;;;;4909525;29;20343;-85
2021/03/13 14:34:12;;;;;;;21.52;3.00;;;;;;;;;;4938609;28;20038;-83
2021/03/13 14:36:37;;;;;;;8.73;1.80;;;;;;;;;;4962284;28;20463;-82
2021/03/13 14:39:06;;;;;;;8.73;1.47;;;;;;;;;;4958346;28;20042;-80
2021/03/13 14:41:31;;;;;;;4.95;1.45;;;;;;;;;;4942794;28;20899;-83